Time;durP1;ratioP1;P1;durP2;ratioP2;P2;SDS_P1;SDS_P2;PMS_P1;PMS_P2;Temp;Humidity;BMP_temperature;BMP_pressure;BME280_temperature;BME280_humidity;BME280_pressure;Samples;Min_cycle;Max_cycle;Signal;HPM_P1;HPM_P2
2023/09/22 00:00:48;;;;;;;3.75;1.23;;;;;;;;;;10274602;28;20797;-76
2023/09/22 00:05:52;;;;;;;2.17;0.52;;;;;;;;;;10274752;28;20485;-78
2023/09/22 00:10:55;;;;;;;0.70;0.30;;;;;;;;;;10273458;28;20482;-78
2023/09/22 00:15:59;;;;;;;0.75;0.30;;;;;;;;;;10270476;28;20527;-77
2023/09/22 00:21:04;;;;;;;0.30;0.30;;;;;;;;;;10268364;28;20432;-76
2023/09/22 00:26:07;;;;;;;0.73;0.20;;;;;;;;;;10257921;28;21004;-77
2023/09/22 00:31:11;;;;;;;1.00;0.28;;;;;;;;;;10272692;28;20798;-76
2023/09/22 00:36:14;;;;;;;0.20;0.20;;;;;;;;;;10268221;28;20446;-76
2023/09/22 00:41:17;;;;;;;0.40;0.30;;;;;;;;;;10269765;28;20936;-77
2023/09/22 00:46:23;;;;;;;0.20;0.20;;;;;;;;;;10267366;28;20480;-77
2023/09/22 00:51:26;;;;;;;1.20;0.30;;;;;;;;;;10250635;28;20424;-78
2023/09/22 00:56:29;;;;;;;1.37;0.40;;;;;;;;;;10267545;28;20906;-77
2023/09/22 01:01:33;;;;;;;0.50;0.20;;;;;;;;;;10248050;28;20435;-77
2023/09/22 01:06:37;;;;;;;0.80;0.40;;;;;;;;;;10270016;28;20525;-77
2023/09/22 01:11:40;;;;;;;0.35;0.25;;;;;;;;;;10267961;28;21039;-76
2023/09/22 01:16:44;;;;;;;1.30;0.50;;;;;;;;;;10271190;28;20428;-78
2023/09/22 01:21:49;;;;;;;1.65;0.40;;;;;;;;;;10269255;28;20520;-78
2023/09/22 01:26:51;;;;;;;0.70;0.32;;;;;;;;;;10264827;28;20776;-77
2023/09/22 01:31:54;;;;;;;1.10;0.30;;;;;;;;;;10276975;28;20432;-77
2023/09/22 01:37:00;;;;;;;1.02;0.50;;;;;;;;;;10245556;28;20564;-76
2023/09/22 01:42:03;;;;;;;0.73;0.40;;;;;;;;;;10262704;28;20441;-76
2023/09/22 01:47:06;;;;;;;0.30;0.23;;;;;;;;;;10271018;28;21104;-77
2023/09/22 01:52:10;;;;;;;0.55;0.30;;;;;;;;;;10264248;28;20432;-78
2023/09/22 01:57:13;;;;;;;1.48;0.50;;;;;;;;;;10271822;28;21026;-77
2023/09/22 02:02:15;;;;;;;0.38;0.30;;;;;;;;;;10271913;28;20433;-76
2023/09/22 02:07:19;;;;;;;1.10;0.30;;;;;;;;;;10273832;28;20436;-78
2023/09/22 02:12:23;;;;;;;1.55;0.47;;;;;;;;;;10270186;28;20862;-77
2023/09/22 02:17:25;;;;;;;0.47;0.23;;;;;;;;;;10278290;28;20535;-78
2023/09/22 02:22:30;;;;;;;0.73;0.30;;;;;;;;;;10270118;28;20447;-78
2023/09/22 02:27:33;;;;;;;1.27;0.50;;;;;;;;;;10269910;28;20990;-78
2023/09/22 02:32:35;;;;;;;0.50;0.30;;;;;;;;;;10277113;28;20487;-76
2023/09/22 02:37:40;;;;;;;1.30;0.50;;;;;;;;;;10276505;28;20435;-76
2023/09/22 02:42:44;;;;;;;2.08;0.60;;;;;;;;;;10267830;28;20539;-78
2023/09/22 02:47:47;;;;;;;1.30;0.38;;;;;;;;;;10280817;28;20447;-78
2023/09/22 02:52:52;;;;;;;0.70;0.40;;;;;;;;;;10277861;28;20478;-77
2023/09/22 02:57:56;;;;;;;0.65;0.47;;;;;;;;;;10267796;28;20447;-78
2023/09/22 03:02:59;;;;;;;0.30;0.20;;;;;;;;;;10273683;28;20440;-78
2023/09/22 03:08:04;;;;;;;0.40;0.30;;;;;;;;;;10273794;28;20435;-78
2023/09/22 03:13:07;;;;;;;0.83;0.43;;;;;;;;;;10277211;28;20441;-77
2023/09/22 03:18:10;;;;;;;0.57;0.40;;;;;;;;;;10278672;28;20514;-79
2023/09/22 03:23:14;;;;;;;1.02;0.57;;;;;;;;;;10260931;28;20463;-79
2023/09/22 03:28:19;;;;;;;1.57;0.70;;;;;;;;;;10277408;28;20458;-79
2023/09/22 03:33:22;;;;;;;1.10;0.30;;;;;;;;;;10277746;28;20436;-78
2023/09/22 03:38:28;;;;;;;0.82;0.50;;;;;;;;;;10272165;28;20522;-78
2023/09/22 03:43:31;;;;;;;0.73;0.57;;;;;;;;;;10265823;28;21008;-77
2023/09/22 03:48:34;;;;;;;1.00;0.40;;;;;;;;;;10267617;28;20511;-78
2023/09/22 03:53:38;;;;;;;0.80;0.47;;;;;;;;;;10275945;28;20434;-77
2023/09/22 03:58:41;;;;;;;1.05;0.40;;;;;;;;;;10275479;28;21124;-76
2023/09/22 04:03:44;;;;;;;1.53;0.70;;;;;;;;;;10270240;28;20564;-76
2023/09/22 04:08:53;;;;;;;1.40;0.50;;;;;;;;;;10270070;28;20506;-76
2023/09/22 04:13:55;;;;;;;0.52;0.45;;;;;;;;;;10274303;28;21433;-76
2023/09/22 04:18:58;;;;;;;1.13;0.52;;;;;;;;;;10276257;28;20463;-77
2023/09/22 04:24:03;;;;;;;1.05;0.60;;;;;;;;;;10273623;28;20443;-76
2023/09/22 04:29:06;;;;;;;1.00;0.50;;;;;;;;;;10271216;28;20435;-76
2023/09/22 04:34:09;;;;;;;0.90;0.50;;;;;;;;;;10271521;28;20794;-76
2023/09/22 04:39:14;;;;;;;0.93;0.50;;;;;;;;;;10269989;28;21658;-76
2023/09/22 04:44:17;;;;;;;1.02;0.60;;;;;;;;;;10271541;28;20532;-76
2023/09/22 04:49:19;;;;;;;1.20;0.52;;;;;;;;;;10275765;28;20631;-76
2023/09/22 04:54:23;;;;;;;1.80;0.60;;;;;;;;;;10272590;28;20431;-78
2023/09/22 04:59:26;;;;;;;1.23;0.60;;;;;;;;;;10272564;28;20435;-77
2023/09/22 05:04:29;;;;;;;1.48;0.70;;;;;;;;;;10271945;28;20554;-78
2023/09/22 05:09:34;;;;;;;2.20;0.70;;;;;;;;;;10271407;28;20515;-76
2023/09/22 05:14:36;;;;;;;1.77;0.90;;;;;;;;;;10268922;28;20498;-77
2023/09/22 05:19:39;;;;;;;0.98;0.50;;;;;;;;;;10272355;28;20644;-77
2023/09/22 05:24:43;;;;;;;1.80;0.73;;;;;;;;;;10268008;28;20991;-78
2023/09/22 05:29:46;;;;;;;1.33;0.63;;;;;;;;;;10268951;28;20480;-77
2023/09/22 05:34:51;;;;;;;2.17;0.88;;;;;;;;;;10254149;28;21404;-76
2023/09/22 05:39:55;;;;;;;3.87;0.90;;;;;;;;;;10269989;28;20467;-77
2023/09/22 05:44:59;;;;;;;1.23;0.63;;;;;;;;;;10269635;28;20494;-77
2023/09/22 05:50:03;;;;;;;2.30;0.77;;;;;;;;;;10272616;28;20514;-77
2023/09/22 05:55:08;;;;;;;2.20;0.85;;;;;;;;;;10265903;28;20897;-77
2023/09/22 06:00:16;;;;;;;1.05;0.70;;;;;;;;;;10268892;28;20929;-76
2023/09/22 06:05:19;;;;;;;3.10;0.80;;;;;;;;;;10270969;28;20477;-75
2023/09/22 06:10:24;;;;;;;1.85;0.70;;;;;;;;;;10270687;28;20438;-76
2023/09/22 06:15:26;;;;;;;2.13;0.90;;;;;;;;;;10269319;28;20795;-77
2023/09/22 06:20:29;;;;;;;3.97;0.70;;;;;;;;;;10267051;28;20477;-76
2023/09/22 06:25:34;;;;;;;2.03;0.88;;;;;;;;;;10267276;28;20484;-76
2023/09/22 06:30:37;;;;;;;0.57;0.50;;;;;;;;;;10268730;28;20477;-75
2023/09/22 06:35:40;;;;;;;2.60;0.98;;;;;;;;;;10265208;28;20419;-77
2023/09/22 06:40:45;;;;;;;2.97;1.00;;;;;;;;;;10265898;28;20897;-77
2023/09/22 06:45:50;;;;;;;2.08;1.10;;;;;;;;;;10267575;28;20431;-76
2023/09/22 06:50:53;;;;;;;2.30;1.00;;;;;;;;;;10267294;28;20841;-76
2023/09/22 06:56:06;;;;;;;3.33;1.00;;;;;;;;;;10270503;28;21022;-76
2023/09/22 07:01:10;;;;;;;2.90;1.20;;;;;;;;;;10272210;28;20498;-76
2023/09/22 07:06:14;;;;;;;2.33;0.80;;;;;;;;;;10275921;28;20439;-76
2023/09/22 07:11:20;;;;;;;1.38;0.57;;;;;;;;;;10267817;28;20927;-76
2023/09/22 07:16:23;;;;;;;3.65;0.88;;;;;;;;;;10275594;28;20449;-76
2023/09/22 07:21:26;;;;;;;2.00;0.65;;;;;;;;;;10270516;28;20978;-75
2023/09/22 07:26:30;;;;;;;0.93;0.60;;;;;;;;;;10275079;28;21068;-75
2023/09/22 07:31:33;;;;;;;2.40;0.70;;;;;;;;;;10269541;28;20531;-77
2023/09/22 07:36:36;;;;;;;1.30;0.60;;;;;;;;;;10254096;28;20451;-75
2023/09/22 07:41:40;;;;;;;3.70;0.97;;;;;;;;;;10271154;28;20870;-75
2023/09/22 07:46:43;;;;;;;2.70;1.10;;;;;;;;;;10274524;28;20896;-76
2023/09/22 07:51:46;;;;;;;3.45;0.80;;;;;;;;;;10273702;28;20510;-77
2023/09/22 07:56:50;;;;;;;2.22;1.10;;;;;;;;;;10274276;28;20451;-75
2023/09/22 08:01:53;;;;;;;2.30;0.93;;;;;;;;;;10269882;28;20432;-74
2023/09/22 08:06:56;;;;;;;2.90;1.02;;;;;;;;;;10268819;28;20439;-76
2023/09/22 08:12:01;;;;;;;1.38;0.65;;;;;;;;;;10270911;28;20466;-75
2023/09/22 08:17:06;;;;;;;4.20;1.08;;;;;;;;;;10271287;28;20453;-75
2023/09/22 08:22:10;;;;;;;2.78;1.30;;;;;;;;;;10265007;28;20471;-74
2023/09/22 08:27:15;;;;;;;0.93;0.50;;;;;;;;;;10266246;28;20478;-75
2023/09/22 08:32:18;;;;;;;2.00;0.90;;;;;;;;;;10269200;28;20489;-74
2023/09/22 08:37:21;;;;;;;2.07;0.90;;;;;;;;;;10265946;28;20460;-76
2023/09/22 08:42:25;;;;;;;2.67;1.25;;;;;;;;;;10266678;28;20566;-77
2023/09/22 08:47:27;;;;;;;3.00;0.95;;;;;;;;;;10268310;28;20844;-76
2023/09/22 08:52:30;;;;;;;3.53;1.20;;;;;;;;;;10262520;28;20499;-76
2023/09/22 08:57:35;;;;;;;1.20;0.70;;;;;;;;;;10259733;28;20451;-77
2023/09/22 09:02:38;;;;;;;1.83;0.73;;;;;;;;;;10260193;28;20491;-76
2023/09/22 09:07:41;;;;;;;1.43;0.60;;;;;;;;;;10271346;28;20515;-85
2023/09/22 09:12:46;;;;;;;2.40;1.00;;;;;;;;;;10255720;28;20949;-85
2023/09/22 09:18:02;;;;;;;2.57;1.07;;;;;;;;;;10270258;28;20453;-86
2023/09/22 09:23:13;;;;;;;0.70;0.52;;;;;;;;;;10248793;28;20444;-86
2023/09/22 09:28:18;;;;;;;3.00;1.00;;;;;;;;;;10273779;28;20979;-86
2023/09/22 09:33:24;;;;;;;2.70;1.25;;;;;;;;;;10270463;28;20442;-84
2023/09/22 09:38:33;;;;;;;2.40;1.03;;;;;;;;;;10271342;28;20548;-83
2023/09/22 09:43:52;;;;;;;2.63;0.90;;;;;;;;;;10241850;28;20447;-84
2023/09/22 09:49:13;;;;;;;2.40;0.80;;;;;;;;;;10275453;28;20921;-87
2023/09/22 09:54:24;;;;;;;1.10;0.70;;;;;;;;;;10273384;28;20489;-84
2023/09/22 09:59:34;;;;;;;1.90;0.80;;;;;;;;;;10253647;28;20489;-85
2023/09/22 10:04:50;;;;;;;1.50;0.80;;;;;;;;;;10250579;28;20465;-85
2023/09/22 10:09:58;;;;;;;2.17;0.90;;;;;;;;;;10252840;28;21023;-84
2023/09/22 10:15:09;;;;;;;3.80;1.00;;;;;;;;;;10271381;28;20979;-83
2023/09/22 10:20:39;;;;;;;3.13;1.20;;;;;;;;;;10247445;28;21008;-82
2023/09/22 10:26:10;;;;;;;1.17;0.80;;;;;;;;;;10248315;28;20979;-84
2023/09/22 10:31:25;;;;;;;4.10;1.02;;;;;;;;;;10264790;28;20605;-82
2023/09/22 10:36:48;;;;;;;2.05;0.73;;;;;;;;;;10275056;28;20921;-76
2023/09/22 10:42:01;;;;;;;1.98;0.70;;;;;;;;;;10251305;28;20527;-76
2023/09/22 10:47:11;;;;;;;2.10;0.90;;;;;;;;;;10252746;28;20461;-75
2023/09/22 10:52:26;;;;;;;1.35;0.57;;;;;;;;;;10258919;28;20440;-74
2023/09/22 10:57:52;;;;;;;1.23;0.70;;;;;;;;;;10240976;28;20472;-76
2023/09/22 11:03:16;;;;;;;2.47;1.03;;;;;;;;;;10265887;28;20556;-76
2023/09/22 11:08:33;;;;;;;2.25;0.80;;;;;;;;;;10273141;28;20599;-75
2023/09/22 11:13:38;;;;;;;2.92;0.93;;;;;;;;;;10252864;28;20437;-75
2023/09/22 11:19:00;;;;;;;3.00;0.70;;;;;;;;;;10266664;28;20435;-76
2023/09/22 11:24:16;;;;;;;2.30;0.80;;;;;;;;;;10274572;28;20447;-76
2023/09/22 11:29:20;;;;;;;2.42;1.10;;;;;;;;;;10256007;28;20485;-77
2023/09/22 11:34:24;;;;;;;1.00;0.50;;;;;;;;;;10270289;28;20783;-78
2023/09/22 11:39:34;;;;;;;2.05;0.80;;;;;;;;;;10270869;28;20528;-76
2023/09/22 11:44:43;;;;;;;1.55;0.77;;;;;;;;;;10265459;28;20456;-76
2023/09/22 11:49:48;;;;;;;1.90;1.10;;;;;;;;;;10249066;28;20881;-76
2023/09/22 11:54:57;;;;;;;2.00;0.87;;;;;;;;;;10254761;28;20435;-73
2023/09/22 12:00:18;;;;;;;2.00;1.00;;;;;;;;;;10273003;28;20468;-75
2023/09/22 12:05:21;;;;;;;3.23;1.10;;;;;;;;;;10268348;28;20527;-76
2023/09/22 12:10:38;;;;;;;2.30;0.90;;;;;;;;;;10270748;28;20467;-76
2023/09/22 12:15:43;;;;;;;1.67;0.80;;;;;;;;;;10239076;28;20493;-74
2023/09/22 12:20:51;;;;;;;1.98;0.77;;;;;;;;;;10272761;28;20520;-74
2023/09/22 12:25:58;;;;;;;1.15;0.63;;;;;;;;;;10268926;28;20514;-75
2023/09/22 12:31:06;;;;;;;1.97;0.70;;;;;;;;;;10264564;28;20486;-76
2023/09/22 12:36:13;;;;;;;4.40;0.85;;;;;;;;;;10253522;28;20625;-75
2023/09/22 12:41:23;;;;;;;1.60;0.70;;;;;;;;;;10272003;28;20603;-75
2023/09/22 12:46:29;;;;;;;1.93;0.60;;;;;;;;;;10253264;28;20655;-75
2023/09/22 12:51:39;;;;;;;2.33;0.75;;;;;;;;;;10252363;28;20490;-75
2023/09/22 12:56:44;;;;;;;0.85;0.65;;;;;;;;;;10267677;28;20489;-74
2023/09/22 13:01:50;;;;;;;2.67;0.80;;;;;;;;;;10267633;28;20470;-76
2023/09/22 13:06:53;;;;;;;1.40;0.50;;;;;;;;;;10265383;28;20481;-76
2023/09/22 13:12:16;;;;;;;1.85;0.65;;;;;;;;;;10248701;28;20498;-75
2023/09/22 13:17:20;;;;;;;1.40;0.60;;;;;;;;;;10270190;28;21107;-76
2023/09/22 13:22:29;;;;;;;1.30;0.65;;;;;;;;;;10267396;28;21318;-76
2023/09/22 13:27:41;;;;;;;1.08;0.40;;;;;;;;;;10271259;28;20532;-75
2023/09/22 13:32:52;;;;;;;1.08;0.40;;;;;;;;;;10254889;28;20469;-76
2023/09/22 13:37:58;;;;;;;1.10;0.60;;;;;;;;;;10268190;28;20576;-76
2023/09/22 13:43:12;;;;;;;0.73;0.40;;;;;;;;;;10268081;28;20546;-75
2023/09/22 13:48:38;;;;;;;2.35;1.10;;;;;;;;;;10266662;28;20459;-75
2023/09/22 13:53:42;;;;;;;2.17;0.80;;;;;;;;;;10264131;28;20712;-77
2023/09/22 13:59:00;;;;;;;2.50;0.80;;;;;;;;;;10265237;28;20437;-75
2023/09/22 14:04:06;;;;;;;2.95;0.77;;;;;;;;;;10265652;28;20438;-75
2023/09/22 14:15:03;;;;;;;1.25;0.80;;;;;;;;;;10225287;28;20936;-78
2023/09/22 14:20:12;;;;;;;1.53;0.67;;;;;;;;;;10282241;28;20485;-82
2023/09/22 14:25:22;;;;;;;4.80;1.30;;;;;;;;;;10279336;28;20440;-80
2023/09/22 14:30:37;;;;;;;2.47;1.07;;;;;;;;;;10278732;28;20931;-82
2023/09/22 14:35:57;;;;;;;1.80;0.80;;;;;;;;;;10287455;28;20924;-80
2023/09/22 14:41:13;;;;;;;1.10;0.53;;;;;;;;;;10252947;28;20949;-79
2023/09/22 14:46:26;;;;;;;1.07;0.60;;;;;;;;;;10256332;28;20452;-80
2023/09/22 14:51:46;;;;;;;2.47;0.80;;;;;;;;;;10255950;28;20991;-80
2023/09/22 15:02:21;;;;;;;2.53;1.10;;;;;;;;;;10269798;28;20431;-80
2023/09/22 15:07:26;;;;;;;2.00;1.00;;;;;;;;;;10274524;28;20511;-80
2023/09/22 15:12:34;;;;;;;3.70;1.60;;;;;;;;;;10274243;28;20955;-80
2023/09/22 15:23:47;;;;;;;3.05;1.08;;;;;;;;;;10270283;28;20440;-82
2023/09/22 15:34:31;;;;;;;2.08;1.00;;;;;;;;;;10277230;28;20417;-82
2023/09/22 15:39:49;;;;;;;2.63;0.95;;;;;;;;;;10284763;28;20438;-85
2023/09/22 15:45:10;;;;;;;1.33;0.63;;;;;;;;;;10280929;28;20439;-83
2023/09/22 15:50:21;;;;;;;0.53;0.40;;;;;;;;;;10292534;28;20436;-80
2023/09/22 16:01:06;;;;;;;1.20;0.60;;;;;;;;;;10268504;28;20772;-79
2023/09/22 16:06:15;;;;;;;2.00;0.70;;;;;;;;;;10273560;28;20436;-80
2023/09/22 16:11:48;;;;;;;3.22;1.10;;;;;;;;;;10272447;28;20435;-80
2023/09/22 16:16:56;;;;;;;1.30;0.80;;;;;;;;;;10247337;28;20443;-81
2023/09/22 16:22:09;;;;;;;2.55;0.80;;;;;;;;;;10271042;28;21048;-81
2023/09/22 16:27:20;;;;;;;1.93;1.00;;;;;;;;;;10267828;28;20438;-81
2023/09/22 16:32:30;;;;;;;1.52;0.77;;;;;;;;;;10269782;28;20436;-80
2023/09/22 16:37:35;;;;;;;1.67;1.02;;;;;;;;;;10265324;28;20788;-81
2023/09/22 16:42:48;;;;;;;2.78;0.98;;;;;;;;;;10266839;28;20439;-80
2023/09/22 16:53:35;;;;;;;3.17;1.35;;;;;;;;;;10271326;28;20442;-80
2023/09/22 16:58:46;;;;;;;1.50;0.80;;;;;;;;;;10251793;28;20468;-80
2023/09/22 17:04:15;;;;;;;2.08;1.10;;;;;;;;;;10268598;28;20488;-78
2023/09/22 17:09:30;;;;;;;2.17;0.97;;;;;;;;;;10269800;28;20462;-80
2023/09/22 17:14:40;;;;;;;2.17;1.17;;;;;;;;;;10264942;28;20436;-79
2023/09/22 17:19:49;;;;;;;1.95;0.80;;;;;;;;;;10266868;28;20432;-79
2023/09/22 17:25:09;;;;;;;2.25;1.10;;;;;;;;;;10264260;28;20881;-79
2023/09/22 17:30:31;;;;;;;4.03;1.10;;;;;;;;;;10267909;28;20443;-79
2023/09/22 17:35:39;;;;;;;4.32;1.73;;;;;;;;;;10235013;28;20807;-81
2023/09/22 17:40:49;;;;;;;4.70;1.90;;;;;;;;;;10264355;28;20426;-80
2023/09/22 17:46:08;;;;;;;3.70;1.70;;;;;;;;;;10262931;28;20492;-80
2023/09/22 17:51:30;;;;;;;3.00;1.20;;;;;;;;;;10260445;28;20473;-82
2023/09/22 17:56:53;;;;;;;1.13;0.60;;;;;;;;;;10270282;28;20431;-79
2023/09/22 18:02:16;;;;;;;2.55;1.00;;;;;;;;;;10273188;28;20952;-80
2023/09/22 18:07:25;;;;;;;3.03;1.30;;;;;;;;;;10240427;28;20444;-80
2023/09/22 18:12:31;;;;;;;2.97;1.13;;;;;;;;;;10252556;28;20436;-80
2023/09/22 18:17:48;;;;;;;1.30;0.80;;;;;;;;;;10257198;28;20435;-80
2023/09/22 18:22:56;;;;;;;2.35;1.02;;;;;;;;;;10270989;28;20459;-80
2023/09/22 18:28:04;;;;;;;1.85;0.93;;;;;;;;;;10271864;28;20467;-80
2023/09/22 18:33:26;;;;;;;2.72;1.25;;;;;;;;;;10273107;28;20798;-80
2023/09/22 18:38:43;;;;;;;2.43;0.90;;;;;;;;;;10249764;28;20438;-80
2023/09/22 18:49:32;;;;;;;1.93;0.90;;;;;;;;;;10267842;28;20441;-80
2023/09/22 18:54:40;;;;;;;1.88;0.90;;;;;;;;;;10270163;28;20822;-80
2023/09/22 18:59:51;;;;;;;2.00;0.90;;;;;;;;;;10274463;28;21142;-82
2023/09/22 19:05:12;;;;;;;3.80;1.10;;;;;;;;;;10274474;28;20595;-81
2023/09/22 19:10:20;;;;;;;2.33;1.10;;;;;;;;;;10276403;28;20437;-81
2023/09/22 19:15:34;;;;;;;8.40;3.60;;;;;;;;;;10279049;28;20447;-80
2023/09/22 19:20:45;;;;;;;3.30;1.30;;;;;;;;;;10276080;28;20432;-80
2023/09/22 19:25:55;;;;;;;4.85;2.17;;;;;;;;;;10242681;28;20993;-80
2023/09/22 19:31:05;;;;;;;1.88;1.00;;;;;;;;;;10275314;28;20888;-80
2023/09/22 19:41:37;;;;;;;2.47;1.02;;;;;;;;;;10274079;28;20886;-82
2023/09/22 19:46:45;;;;;;;3.40;1.10;;;;;;;;;;10278381;28;20585;-80
2023/09/22 19:51:56;;;;;;;2.70;1.27;;;;;;;;;;10280132;28;20881;-80
2023/09/22 19:57:11;;;;;;;4.15;1.60;;;;;;;;;;10268899;28;20430;-80
2023/09/22 20:02:20;;;;;;;5.90;2.80;;;;;;;;;;10272899;28;20438;-80
2023/09/22 20:07:46;;;;;;;3.90;1.25;;;;;;;;;;10275289;28;20448;-79
2023/09/22 20:13:16;;;;;;;1.67;0.90;;;;;;;;;;10260796;28;20561;-79
2023/09/22 20:18:33;;;;;;;1.63;0.70;;;;;;;;;;10255370;28;20950;-79
2023/09/22 20:23:55;;;;;;;0.80;0.40;;;;;;;;;;10272380;28;20428;-79
2023/09/22 20:29:04;;;;;;;1.02;0.50;;;;;;;;;;10249196;28;20552;-79
2023/09/22 20:39:39;;;;;;;1.52;0.60;;;;;;;;;;10278516;28;20507;-81
2023/09/22 20:44:44;;;;;;;0.93;0.70;;;;;;;;;;10274538;28;20438;-80
2023/09/22 20:49:51;;;;;;;1.17;0.70;;;;;;;;;;10275464;28;20450;-79
2023/09/22 20:55:03;;;;;;;0.97;0.57;;;;;;;;;;10277069;28;20897;-81
2023/09/22 21:00:23;;;;;;;0.85;0.50;;;;;;;;;;10274746;28;20440;-79
2023/09/22 21:05:34;;;;;;;0.93;0.60;;;;;;;;;;10263988;28;20539;-81
2023/09/22 21:10:50;;;;;;;1.90;0.70;;;;;;;;;;10281115;28;20432;-81
2023/09/22 21:16:01;;;;;;;1.23;0.70;;;;;;;;;;10260175;28;20443;-80
2023/09/22 21:21:09;;;;;;;1.00;0.60;;;;;;;;;;10270525;28;20495;-81
2023/09/22 21:26:30;;;;;;;0.70;0.50;;;;;;;;;;10280207;28;20439;-81
2023/09/22 21:31:39;;;;;;;1.70;0.60;;;;;;;;;;10266367;28;20506;-79
2023/09/22 21:36:46;;;;;;;1.33;0.80;;;;;;;;;;10261838;28;20474;-80
2023/09/22 21:41:55;;;;;;;1.67;0.90;;;;;;;;;;10270950;28;20439;-80
2023/09/22 21:52:25;;;;;;;2.83;0.80;;;;;;;;;;10254108;28;20450;-79
2023/09/22 22:02:59;;;;;;;2.50;0.60;;;;;;;;;;10287191;28;20860;-79
2023/09/22 22:08:17;;;;;;;0.30;0.30;;;;;;;;;;10279706;28;20424;-77
2023/09/22 22:13:32;;;;;;;0.50;0.40;;;;;;;;;;10303427;28;20463;-78
2023/09/22 22:18:38;;;;;;;0.40;0.28;;;;;;;;;;10295979;28;20452;-78
2023/09/22 22:23:43;;;;;;;0.90;0.40;;;;;;;;;;10284459;28;20426;-78
2023/09/22 22:29:06;;;;;;;1.25;0.50;;;;;;;;;;10281750;28;20435;-79
2023/09/22 22:34:13;;;;;;;1.63;0.50;;;;;;;;;;10271055;28;20497;-80
2023/09/22 22:39:29;;;;;;;1.17;0.40;;;;;;;;;;10265725;28;20432;-79
2023/09/22 22:45:03;;;;;;;1.40;0.50;;;;;;;;;;10264922;28;20449;-80
2023/09/22 22:55:58;;;;;;;1.20;0.40;;;;;;;;;;10282457;28;20480;-80
2023/09/22 23:01:11;;;;;;;1.40;0.47;;;;;;;;;;10279512;28;20438;-80
2023/09/22 23:06:28;;;;;;;0.60;0.30;;;;;;;;;;10265881;28;20431;-80
2023/09/22 23:11:37;;;;;;;0.65;0.50;;;;;;;;;;10278282;28;20511;-80
2023/09/22 23:17:01;;;;;;;8.65;0.90;;;;;;;;;;10264857;28;20439;-80
2023/09/22 23:22:14;;;;;;;1.65;0.70;;;;;;;;;;10243121;28;20444;-80
2023/09/22 23:27:20;;;;;;;0.88;0.50;;;;;;;;;;10272868;28;20436;-80
2023/09/22 23:32:28;;;;;;;1.00;0.60;;;;;;;;;;10274288;28;20435;-78
2023/09/22 23:38:04;;;;;;;1.67;0.50;;;;;;;;;;10275157;28;21087;-78
2023/09/22 23:43:10;;;;;;;1.77;0.80;;;;;;;;;;10267986;28;20878;-79
2023/09/22 23:48:25;;;;;;;1.55;0.60;;;;;;;;;;10260977;28;20430;-79
2023/09/22 23:53:41;;;;;;;1.07;0.70;;;;;;;;;;10271722;28;20432;-79
2023/09/22 23:58:51;;;;;;;2.60;0.80;;;;;;;;;;10259128;28;20533;-79
